Norrkoping, Sweden

3:47 AM CEST on July 04, 2015 (GMT +0200)
Kungsangen | | Change Station
CLOSE
Current Station
Airport
Location: Norrkoping,
Elevation: 30 ft
Nearby Weather Stations

Elev 30 ft 58.59 °N, 16.25 °E | Updated 27 minutes ago

Partly Cloudy
Partly Cloudy
63 °F
Feels Like 63 °F
N
5
Wind Variable Wind from WSW

Today
High -- | Low -- °F
--% Chance of Precip.
Yesterday
High -- | Low -- °F
Precip. -- in
3:54 AM 10:03 PM
Waning Gibbous, 95% visible
Pressure 30.18 in
Visibility 6.2 miles
Clouds Few 19000 ft
Dew Point 57 °F
Humidity 82%
Rainfall 0.00 in
Snow Depth Not available.
UV 0 out of 12
Pollen Not available.
Air Quality Not available.
Flu Activity Not available.
METAR ESSP 040120Z AUTO 24004KT 9999 FEW190/// 17/14 Q1022

More Conditions Fewer Conditions

Pressure 30.18 in
Visibility 6.2 miles
Clouds Few 19000 ft
Dew Point 57 °F
Humidity 82%
Rainfall 0.00 in
Snow Depth Not available.
UV 0 out of 12
Pollen Not available.
Air Quality Not available.
Flu Activity Not available.
METAR ESSP 040120Z AUTO 24004KT 9999 FEW190/// 17/14 Q1022

More Conditions Fewer Conditions

10-Day Weather Forecast

×

Almanac

Astronomy

Jul. 04, 2015 Rise Set
Actual Time
Civil Twilight
Nautical Twilight
Astronomical Twilight
Moon
Length of Visible Light
Length of Day
Tomorrow will be .
, % of the Moon is Illuminated

Today's Extremes

Country Highs Country Lows

Community

WunderPhotos

Upload Photos

1,834,868 photos uploaded!

WunderBlogs® & News

Nearby

Air Quality

  Air Quality AQ Index Pollutant
Not available.

Snow Depth

Station Depth Elevation

Earthquake Activity

City Distance Mag. Time & Date
Minimum magnitude displayed is 2.5.

Coastal Water Temperatures

Place Temperature

Stations

Nearby Weather Stations

Station Location Temp. Windchill Dew Point Humidity Wind Precip. Elev Updated Type